Wetterdaten: Woche 21.11.11 - 27.11.11 (KW47)
Datum Zeit Temp. Innen Temp. Aussen UV X Diff Temp. Feuchte Inne Feuchte Auss Sonnenschein Luftdruck Regen ab 0,1 Wind Sonnenschein T Regendauer Windben
21.11.2011 00:00 15,5 C 1,8 C 0,0 UV-I 0,0 C 50 % 90 % 0 % 1017,1 hPa 0,0 l/m 0,0 km/h (0 Bft) 0,00 h 0,03 h 0,0 km/h (0 Bft)
21.11.2011 01:00 15,4 C 1,3 C 0,0 UV-I 0,0 C 50 % 90 % 0 % 1016,9 hPa 0,0 l/m 0,0 km/h (0 Bft) 0,00 h 0,00 h 0,0 km/h (0 Bft)
21.11.2011 02:00 15,2 C 1,2 C 0,0 UV-I 0,0 C 50 % 91 % 0 % 1016,5 hPa 0,0 l/m 0,0 km/h (0 Bft) 0,00 h 0,03 h 0,0 km/h (0 Bft)
21.11.2011 03:00 15,1 C 2,2 C 0,0 UV-I 0,0 C 50 % 92 % 0 % 1016,4 hPa 0,0 l/m 0,3 km/h (0 Bft) 0,00 h 0,00 h 1,4 km/h (1 Bft)
21.11.2011 04:00 15,1 C 3,3 C 0,0 UV-I 0,0 C 50 % 92 % 0 % 1016,1 hPa 0,0 l/m 1,7 km/h (1 Bft) 0,00 h 0,00 h 3,6 km/h (1 Bft)
21.11.2011 05:00 15,2 C 3,6 C 0,0 UV-I 0,0 C 51 % 92 % 0 % 1015,8 hPa 0,0 l/m 2,2 km/h (1 Bft) 0,00 h 0,03 h 3,2 km/h (1 Bft)
21.11.2011 06:00 15,1 C 3,6 C 0,0 UV-I 0,0 C 51 % 92 % 0 % 1015,8 hPa 0,0 l/m 3,1 km/h (1 Bft) 0,00 h 0,00 h 3,7 km/h (1 Bft)
21.11.2011 07:00 15,2 C 3,5 C 0,0 UV-I 0,0 C 51 % 92 % 0 % 1015,7 hPa 0,0 l/m 1,8 km/h (1 Bft) 0,00 h 0,00 h 2,8 km/h (1 Bft)
21.11.2011 08:00 15,2 C 3,5 C 0,0 UV-I 0,0 C 50 % 92 % 0 % 1015,6 hPa 0,0 l/m 2,4 km/h (1 Bft) 0,00 h 0,00 h 2,5 km/h (1 Bft)
21.11.2011 09:00 15,1 C 4,0 C 0,0 UV-I 1,3 C 51 % 92 % 37 % 1015,9 hPa 0,0 l/m 2,9 km/h (1 Bft) 0,43 h 0,00 h 3,8 km/h (1 Bft)
21.11.2011 10:00 15,3 C 5,8 C 0,1 UV-I 4,6 C 51 % 92 % 100 % 1015,8 hPa 0,0 l/m 5,4 km/h (1 Bft) 1,00 h 0,00 h 6,5 km/h (2 Bft)
21.11.2011 11:00 15,5 C 8,1 C 0,3 UV-I 5,7 C 51 % 89 % 100 % 1015,7 hPa 0,0 l/m 3,3 km/h (1 Bft) 1,00 h 0,00 h 4,8 km/h (1 Bft)
21.11.2011 12:00 15,8 C 9,8 C 0,5 UV-I 5,3 C 51 % 84 % 100 % 1015,6 hPa 0,0 l/m 3,7 km/h (1 Bft) 1,00 h 0,00 h 4,8 km/h (1 Bft)
21.11.2011 13:00 16,6 C 11,1 C 0,4 UV-I 5,1 C 51 % 78 % 100 % 1015,3 hPa 0,0 l/m 2,7 km/h (1 Bft) 1,00 h 0,00 h 3,3 km/h (1 Bft)
21.11.2011 14:00 17,8 C 12,3 C 0,2 UV-I 4,2 C 48 % 71 % 100 % 1015,3 hPa 0,0 l/m 1,4 km/h (1 Bft) 1,00 h 0,00 h 1,2 km/h (1 Bft)
21.11.2011 15:00 18,1 C 11,5 C 0,0 UV-I 1,0 C 47 % 70 % 28 % 1015,3 hPa 0,0 l/m 0,3 km/h (0 Bft) 0,30 h 0,00 h 0,2 km/h (0 Bft)
21.11.2011 16:00 17,5 C 10,2 C 0,0 UV-I 0,0 C 48 % 72 % 0 % 1015,1 hPa 0,0 l/m 0,0 km/h (0 Bft) 0,00 h 0,00 h 0,0 km/h (0 Bft)
21.11.2011 17:00 16,9 C 7,3 C 0,0 UV-I 0,0 C 49 % 76 % 0 % 1015,0 hPa 0,0 l/m 0,0 km/h (0 Bft) 0,00 h 0,00 h 0,0 km/h (0 Bft)
21.11.2011 18:00 16,3 C 5,2 C 0,0 UV-I 0,0 C 50 % 81 % 0 % 1015,2 hPa 0,0 l/m 0,0 km/h (0 Bft) 0,00 h 0,07 h 0,0 km/h (0 Bft)
21.11.2011 19:00 15,9 C 3,8 C 0,0 UV-I 0,0 C 50 % 84 % 0 % 1015,3 hPa 0,0 l/m 0,0 km/h (0 Bft) 0,00 h 0,00 h 0,0 km/h (0 Bft)
21.11.2011 20:00 15,6 C 3,1 C 0,0 UV-I 0,0 C 50 % 86 % 0 % 1015,3 hPa 0,0 l/m 0,0 km/h (0 Bft) 0,00 h 0,00 h 0,0 km/h (0 Bft)
21.11.2011 21:00 15,5 C 2,3 C 0,0 UV-I 0,0 C 50 % 87 % 0 % 1015,3 hPa 0,0 l/m 0,0 km/h (0 Bft) 0,00 h 0,00 h 0,0 km/h (0 Bft)
21.11.2011 22:00 15,3 C 1,8 C 0,0 UV-I 0,0 C 49 % 88 % 0 % 1015,7 hPa 0,0 l/m 0,0 km/h (0 Bft) 0,00 h 0,00 h 0,0 km/h (0 Bft)
21.11.2011 23:00 15,2 C 1,3 C 0,0 UV-I 0,0 C 49 % 89 % 0 % 1015,5 hPa 0,0 l/m 0,0 km/h (0 Bft) 0,00 h 0,03 h 0,0 km/h (0 Bft)
22.11.2011 00:00 15,2 C 1,0 C 0,0 UV-I 0,0 C 49 % 90 % 0 % 1015,4 hPa 0,0 l/m 0,1 km/h (0 Bft) 0,00 h 0,00 h 0,0 km/h (0 Bft)
22.11.2011 01:00 15,1 C 2,7 C 0,0 UV-I 0,0 C 49 % 91 % 0 % 1015,2 hPa 0,0 l/m 2,3 km/h (1 Bft) 0,00 h 0,00 h 3,3 km/h (1 Bft)
22.11.2011 02:00 15,1 C 3,1 C 0,0 UV-I 0,0 C 50 % 91 % 0 % 1015,2 hPa 0,0 l/m 0,7 km/h (0 Bft) 0,00 h 0,03 h 0,8 km/h (0 Bft)
22.11.2011 03:00 15,1 C 2,7 C 0,0 UV-I 0,0 C 49 % 91 % 0 % 1015,2 hPa 0,0 l/m 0,5 km/h (0 Bft) 0,00 h 0,03 h 0,9 km/h (0 Bft)
22.11.2011 04:00 15,1 C 2,8 C 0,0 UV-I 0,0 C 50 % 91 % 0 % 1015,2 hPa 0,0 l/m 0,6 km/h (0 Bft) 0,00 h 0,07 h 0,7 km/h (0 Bft)
22.11.2011 05:00 15,0 C 2,7 C 0,0 UV-I 0,0 C 49 % 91 % 0 % 1015,2 hPa 0,0 l/m 0,6 km/h (0 Bft) 0,00 h 0,00 h 0,8 km/h (0 Bft)
22.11.2011 06:00 14,9 C 2,8 C 0,0 UV-I 0,0 C 49 % 91 % 0 % 1015,7 hPa 0,0 l/m 0,5 km/h (0 Bft) 0,00 h 0,00 h 0,8 km/h (0 Bft)
22.11.2011 07:00 15,0 C 2,6 C 0,0 UV-I 0,0 C 49 % 92 % 0 % 1015,9 hPa 0,0 l/m 0,3 km/h (0 Bft) 0,00 h 0,00 h 0,4 km/h (0 Bft)
22.11.2011 08:00 14,9 C 2,9 C 0,0 UV-I 0,0 C 49 % 92 % 0 % 1016,6 hPa 0,0 l/m 0,8 km/h (0 Bft) 0,00 h 0,00 h 1,7 km/h (1 Bft)
22.11.2011 09:00 15,0 C 3,8 C 0,0 UV-I 0,0 C 49 % 92 % 0 % 1017,1 hPa 0,0 l/m 1,3 km/h (1 Bft) 0,00 h 0,17 h 1,7 km/h (1 Bft)
22.11.2011 10:00 15,2 C 4,9 C 0,0 UV-I 0,4 C 50 % 92 % 11 % 1017,2 hPa 0,2 l/m 3,3 km/h (1 Bft) 0,00 h 0,50 h 4,6 km/h (1 Bft)
22.11.2011 11:00 15,5 C 6,9 C 0,3 UV-I 3,4 C 50 % 91 % 89 % 1017,4 hPa 0,0 l/m 3,2 km/h (1 Bft) 0,80 h 0,00 h 3,5 km/h (1 Bft)
22.11.2011 12:00 15,9 C 8,7 C 0,3 UV-I 1,9 C 50 % 89 % 54 % 1017,4 hPa 0,0 l/m 1,3 km/h (1 Bft) 0,00 h 0,00 h 2,0 km/h (1 Bft)
22.11.2011 13:00 16,2 C 9,8 C 0,2 UV-I 1,5 C 50 % 86 % 42 % 1017,5 hPa 0,0 l/m 1,8 km/h (1 Bft) 0,00 h 0,00 h 2,3 km/h (1 Bft)
22.11.2011 14:00 16,4 C 10,2 C 0,1 UV-I 1,3 C 50 % 84 % 37 % 1017,6 hPa 0,0 l/m 0,8 km/h (0 Bft) 0,10 h 0,00 h 1,1 km/h (1 Bft)
22.11.2011 15:00 16,5 C 10,0 C 0,0 UV-I 0,2 C 50 % 82 % 6 % 1017,7 hPa 0,0 l/m 0,6 km/h (0 Bft) 0,00 h 0,00 h 0,9 km/h (0 Bft)
22.11.2011 16:00 16,3 C 9,3 C 0,0 UV-I 0,0 C 51 % 82 % 0 % 1017,9 hPa 0,0 l/m 0,0 km/h (0 Bft) 0,00 h 0,00 h 0,0 km/h (0 Bft)
22.11.2011 17:00 16,0 C 8,5 C 0,0 UV-I 0,0 C 52 % 84 % 0 % 1018,3 hPa 0,0 l/m 0,0 km/h (0 Bft) 0,00 h 0,00 h 0,0 km/h (0 Bft)
22.11.2011 18:00 15,9 C 7,8 C 0,0 UV-I 0,0 C 53 % 85 % 0 % 1018,9 hPa 0,0 l/m 0,0 km/h (0 Bft) 0,00 h 0,03 h 0,0 km/h (0 Bft)
22.11.2011 19:00 15,7 C 6,8 C 0,0 UV-I 0,0 C 53 % 86 % 0 % 1019,3 hPa 0,0 l/m 0,0 km/h (0 Bft) 0,00 h 0,00 h 0,0 km/h (0 Bft)
22.11.2011 20:00 15,6 C 5,5 C 0,0 UV-I 0,0 C 53 % 87 % 0 % 1019,6 hPa 0,0 l/m 0,0 km/h (0 Bft) 0,00 h 0,00 h 0,0 km/h (0 Bft)
22.11.2011 21:00 15,4 C 4,5 C 0,0 UV-I 0,0 C 53 % 88 % 0 % 1020,0 hPa 0,0 l/m 0,0 km/h (0 Bft) 0,00 h 0,00 h 0,0 km/h (0 Bft)
22.11.2011 22:00 15,2 C 3,6 C 0,0 UV-I 0,0 C 52 % 89 % 0 % 1020,5 hPa 0,0 l/m 0,0 km/h (0 Bft) 0,00 h 0,00 h 0,0 km/h (0 Bft)
22.11.2011 23:00 15,2 C 3,2 C 0,0 UV-I 0,0 C 52 % 90 % 0 % 1020,6 hPa 0,0 l/m 0,0 km/h (0 Bft) 0,00 h 0,03 h 0,0 km/h (0 Bft)
23.11.2011 00:00 15,1 C 2,9 C 0,0 UV-I 0,0 C 51 % 91 % 0 % 1020,7 hPa 0,0 l/m 0,0 km/h (0 Bft) 0,00 h 0,00 h 0,0 km/h (0 Bft)
23.11.2011 01:00 15,1 C 2,5 C 0,0 UV-I 0,0 C 51 % 91 % 0 % 1020,9 hPa 0,0 l/m 0,0 km/h (0 Bft) 0,00 h 0,00 h 0,0 km/h (0 Bft)
23.11.2011 02:00 15,0 C 2,5 C 0,0 UV-I 0,0 C 51 % 91 % 0 % 1021,0 hPa 0,0 l/m 0,1 km/h (0 Bft) 0,00 h 0,03 h 0,2 km/h (0 Bft)
23.11.2011 03:00 15,0 C 3,2 C 0,0 UV-I 0,0 C 51 % 92 % 0 % 1021,3 hPa 0,0 l/m 0,0 km/h (0 Bft) 0,00 h 0,00 h 0,2 km/h (0 Bft)
23.11.2011 04:00 15,1 C 3,6 C 0,0 UV-I 0,0 C 51 % 93 % 0 % 1021,7 hPa 0,0 l/m 0,0 km/h (0 Bft) 0,00 h 0,00 h 0,0 km/h (0 Bft)
23.11.2011 05:00 15,2 C 4,7 C 0,0 UV-I 0,0 C 52 % 93 % 0 % 1022,1 hPa 0,0 l/m 0,4 km/h (0 Bft) 0,00 h 0,00 h 1,1 km/h (1 Bft)
23.11.2011 06:00 15,1 C 5,3 C 0,0 UV-I 0,0 C 52 % 93 % 0 % 1022,5 hPa 0,0 l/m 1,6 km/h (1 Bft) 0,00 h 0,00 h 2,0 km/h (1 Bft)
23.11.2011 07:00 15,2 C 5,9 C 0,0 UV-I 0,0 C 53 % 93 % 0 % 1023,3 hPa 0,0 l/m 0,1 km/h (0 Bft) 0,00 h 0,00 h 0,0 km/h (0 Bft)
23.11.2011 08:00 15,2 C 6,3 C 0,0 UV-I 0,0 C 53 % 93 % 0 % 1024,0 hPa 0,0 l/m 1,0 km/h (0 Bft) 0,00 h 0,20 h 1,8 km/h (1 Bft)
23.11.2011 09:00 15,4 C 6,7 C 0,0 UV-I 0,2 C 54 % 93 % 6 % 1024,4 hPa 0,0 l/m 1,0 km/h (0 Bft) 0,00 h 0,10 h 0,9 km/h (0 Bft)
23.11.2011 10:00 15,5 C 7,3 C 0,0 UV-I 0,2 C 54 % 94 % 7 % 1025,2 hPa 0,0 l/m 0,0 km/h (0 Bft) 0,00 h 0,03 h 0,0 km/h (0 Bft)
23.11.2011 11:00 15,6 C 8,0 C 0,0 UV-I 0,3 C 56 % 94 % 9 % 1025,6 hPa 0,0 l/m 0,1 km/h (0 Bft) 0,00 h 0,00 h 0,0 km/h (0 Bft)
23.11.2011 12:00 15,6 C 8,5 C 0,0 UV-I 0,3 C 56 % 95 % 10 % 1025,3 hPa 0,0 l/m 2,9 km/h (1 Bft) 0,00 h 0,13 h 4,1 km/h (1 Bft)
23.11.2011 13:00 15,7 C 9,1 C 0,0 UV-I 0,6 C 57 % 97 % 16 % 1025,0 hPa 0,0 l/m 1,6 km/h (1 Bft) 0,00 h 0,10 h 1,5 km/h (1 Bft)
23.11.2011 14:00 15,8 C 9,6 C 0,0 UV-I 0,4 C 58 % 97 % 11 % 1025,0 hPa 0,0 l/m 0,9 km/h (0 Bft) 0,00 h 0,10 h 1,3 km/h (1 Bft)
23.11.2011 15:00 15,9 C 9,8 C 0,0 UV-I 0,0 C 58 % 97 % 1 % 1025,9 hPa 0,0 l/m 0,3 km/h (0 Bft) 0,00 h 0,00 h 0,7 km/h (0 Bft)
23.11.2011 16:00 15,9 C 9,7 C 0,0 UV-I 0,0 C 59 % 97 % 0 % 1026,6 hPa 0,0 l/m 0,0 km/h (0 Bft) 0,00 h 0,13 h 0,0 km/h (0 Bft)
23.11.2011 17:00 16,0 C 9,7 C 0,0 UV-I 0,0 C 59 % 97 % 0 % 1027,1 hPa 0,0 l/m 0,0 km/h (0 Bft) 0,00 h 0,07 h 0,0 km/h (0 Bft)
23.11.2011 18:00 16,0 C 9,9 C 0,0 UV-I 0,0 C 60 % 97 % 0 % 1027,5 hPa 0,0 l/m 0,1 km/h (0 Bft) 0,00 h 0,07 h 0,2 km/h (0 Bft)
23.11.2011 19:00 16,0 C 10,0 C 0,0 UV-I 0,0 C 60 % 97 % 0 % 1028,1 hPa 0,0 l/m 0,2 km/h (0 Bft) 0,00 h 0,03 h 0,4 km/h (0 Bft)
23.11.2011 20:00 16,0 C 10,0 C 0,0 UV-I 0,0 C 60 % 97 % 0 % 1028,6 hPa 0,0 l/m 0,0 km/h (0 Bft) 0,00 h 0,13 h 0,0 km/h (0 Bft)
23.11.2011 21:00 16,1 C 9,9 C 0,0 UV-I 0,0 C 61 % 97 % 0 % 1028,9 hPa 0,0 l/m 0,0 km/h (0 Bft) 0,00 h 0,03 h 0,1 km/h (0 Bft)
23.11.2011 22:00 16,1 C 9,4 C 0,0 UV-I 0,0 C 60 % 97 % 0 % 1029,3 hPa 0,0 l/m 0,0 km/h (0 Bft) 0,00 h 0,13 h 0,0 km/h (0 Bft)
23.11.2011 23:00 16,1 C 9,1 C 0,0 UV-I 0,0 C 60 % 97 % 0 % 1029,6 hPa 0,0 l/m 0,0 km/h (0 Bft) 0,00 h 0,10 h 0,0 km/h (0 Bft)
24.11.2011 00:00 15,9 C 8,6 C 0,0 UV-I 0,0 C 60 % 97 % 0 % 1029,9 hPa 0,0 l/m 0,0 km/h (0 Bft) 0,00 h 0,00 h 0,0 km/h (0 Bft)
24.11.2011 01:00 16,0 C 7,3 C 0,0 UV-I 0,0 C 60 % 97 % 0 % 1029,8 hPa 0,0 l/m 0,0 km/h (0 Bft) 0,00 h 0,00 h 0,0 km/h (0 Bft)
24.11.2011 02:00 15,9 C 6,5 C 0,0 UV-I 0,0 C 59 % 97 % 0 % 1030,1 hPa 0,0 l/m 0,0 km/h (0 Bft) 0,00 h 0,10 h 0,0 km/h (0 Bft)
24.11.2011 03:00 15,8 C 5,9 C 0,0 UV-I 0,0 C 58 % 97 % 0 % 1030,2 hPa 0,0 l/m 0,0 km/h (0 Bft) 0,00 h 0,13 h 0,0 km/h (0 Bft)
24.11.2011 04:00 15,8 C 6,0 C 0,0 UV-I 0,0 C 58 % 97 % 0 % 1030,3 hPa 0,0 l/m 0,0 km/h (0 Bft) 0,00 h 0,00 h 0,0 km/h (0 Bft)
24.11.2011 05:00 15,7 C 6,8 C 0,0 UV-I 0,0 C 58 % 97 % 0 % 1030,4 hPa 0,0 l/m 1,1 km/h (0 Bft) 0,00 h 0,07 h 1,9 km/h (1 Bft)
24.11.2011 06:00 15,6 C 6,9 C 0,0 UV-I 0,0 C 58 % 97 % 0 % 1030,5 hPa 0,0 l/m 2,5 km/h (1 Bft) 0,00 h 0,13 h 3,8 km/h (1 Bft)
24.11.2011 07:00 15,6 C 6,8 C 0,0 UV-I 0,0 C 58 % 97 % 0 % 1031,0 hPa 0,1 l/m 1,7 km/h (1 Bft) 0,00 h 0,20 h 2,7 km/h (1 Bft)
24.11.2011 08:00 15,6 C 6,7 C 0,0 UV-I 0,0 C 58 % 98 % 0 % 1031,1 hPa 0,0 l/m 1,5 km/h (1 Bft) 0,00 h 0,17 h 3,1 km/h (1 Bft)
24.11.2011 09:00 15,6 C 7,3 C 0,0 UV-I 0,0 C 58 % 98 % 1 % 1031,3 hPa 0,0 l/m 1,4 km/h (1 Bft) 0,00 h 0,10 h 1,6 km/h (1 Bft)
24.11.2011 10:00 15,7 C 7,9 C 0,0 UV-I 0,5 C 58 % 98 % 15 % 1031,6 hPa 0,0 l/m 1,8 km/h (1 Bft) 0,00 h 0,07 h 2,1 km/h (1 Bft)
24.11.2011 11:00 15,9 C 8,1 C 0,0 UV-I 1,2 C 58 % 98 % 34 % 1031,7 hPa 0,0 l/m 2,0 km/h (1 Bft) 0,00 h 0,03 h 2,7 km/h (1 Bft)
24.11.2011 12:00 16,0 C 8,4 C 0,1 UV-I 1,3 C 57 % 98 % 36 % 1031,3 hPa 0,0 l/m 1,9 km/h (1 Bft) 0,00 h 0,00 h 3,3 km/h (1 Bft)
24.11.2011 13:00 16,5 C 9,1 C 0,3 UV-I 2,0 C 56 % 97 % 58 % 1031,0 hPa 0,0 l/m 1,9 km/h (1 Bft) 0,00 h 0,00 h 2,0 km/h (1 Bft)
24.11.2011 14:00 17,1 C 9,6 C 0,1 UV-I 2,3 C 55 % 96 % 66 % 1030,7 hPa 0,0 l/m 2,0 km/h (1 Bft) 0,60 h 0,00 h 2,8 km/h (1 Bft)
24.11.2011 15:00 17,2 C 9,0 C 0,0 UV-I 0,1 C 54 % 95 % 4 % 1030,2 hPa 0,0 l/m 1,7 km/h (1 Bft) 0,00 h 0,03 h 2,3 km/h (1 Bft)
24.11.2011 16:00 16,8 C 8,4 C 0,0 UV-I 0,0 C 55 % 96 % 0 % 1029,7 hPa 0,0 l/m 2,0 km/h (1 Bft) 0,00 h 0,13 h 2,2 km/h (1 Bft)
24.11.2011 17:00 16,3 C 7,5 C 0,0 UV-I 0,0 C 56 % 96 % 0 % 1029,4 hPa 0,0 l/m 0,3 km/h (0 Bft) 0,00 h 0,07 h 0,5 km/h (0 Bft)
24.11.2011 18:00 16,1 C 7,1 C 0,0 UV-I 0,0 C 57 % 96 % 0 % 1029,3 hPa 0,0 l/m 0,7 km/h (0 Bft) 0,00 h 0,07 h 1,2 km/h (1 Bft)
24.11.2011 19:00 15,9 C 6,4 C 0,0 UV-I 0,0 C 57 % 96 % 0 % 1029,0 hPa 0,0 l/m 0,1 km/h (0 Bft) 0,00 h 0,07 h 0,2 km/h (0 Bft)
24.11.2011 20:00 15,8 C 5,3 C 0,0 UV-I 0,0 C 56 % 96 % 0 % 1028,7 hPa 0,0 l/m 0,1 km/h (0 Bft) 0,00 h 0,00 h 0,3 km/h (0 Bft)
24.11.2011 21:00 15,6 C 4,5 C 0,0 UV-I 0,0 C 55 % 96 % 0 % 1028,0 hPa 0,0 l/m 0,0 km/h (0 Bft) 0,00 h 0,00 h 0,0 km/h (0 Bft)
24.11.2011 22:00 15,5 C 4,3 C 0,0 UV-I 0,0 C 55 % 97 % 0 % 1027,6 hPa 0,0 l/m 3,4 km/h (1 Bft) 0,00 h 0,07 h 4,4 km/h (1 Bft)
24.11.2011 23:00 15,4 C 4,1 C 0,0 UV-I 0,0 C 54 % 97 % 0 % 1026,6 hPa 0,0 l/m 4,4 km/h (1 Bft) 0,00 h 0,07 h 5,6 km/h (1 Bft)
25.11.2011 00:00 15,2 C 4,0 C 0,0 UV-I 0,0 C 54 % 96 % 0 % 1026,5 hPa 0,0 l/m 4,3 km/h (1 Bft) 0,00 h 0,10 h 5,3 km/h (1 Bft)
25.11.2011 01:00 15,2 C 3,7 C 0,0 UV-I 0,0 C 53 % 96 % 0 % 1025,8 hPa 0,0 l/m 3,0 km/h (1 Bft) 0,00 h 0,10 h 3,6 km/h (1 Bft)
25.11.2011 02:00 15,1 C 3,4 C 0,0 UV-I 0,0 C 53 % 95 % 0 % 1025,1 hPa 0,0 l/m 6,2 km/h (2 Bft) 0,00 h 0,13 h 7,2 km/h (2 Bft)
25.11.2011 03:00 15,0 C 3,2 C 0,0 UV-I 0,0 C 52 % 94 % 0 % 1024,9 hPa 0,0 l/m 5,6 km/h (1 Bft) 0,00 h 0,07 h 6,1 km/h (2 Bft)
25.11.2011 04:00 15,0 C 2,6 C 0,0 UV-I 0,0 C 51 % 94 % 0 % 1024,8 hPa 0,0 l/m 4,1 km/h (1 Bft) 0,00 h 0,03 h 4,1 km/h (1 Bft)
25.11.2011 05:00 14,9 C 1,6 C 0,0 UV-I 0,0 C 51 % 94 % 0 % 1024,9 hPa 0,0 l/m 0,0 km/h (0 Bft) 0,00 h 0,00 h 0,1 km/h (0 Bft)
25.11.2011 06:00 14,8 C 1,1 C 0,0 UV-I 0,0 C 51 % 95 % 0 % 1024,7 hPa 0,0 l/m 0,7 km/h (0 Bft) 0,00 h 0,10 h 1,3 km/h (1 Bft)
25.11.2011 07:00 14,8 C 0,8 C 0,0 UV-I 0,0 C 50 % 95 % 0 % 1024,8 hPa 0,0 l/m 2,6 km/h (1 Bft) 0,00 h 0,27 h 3,1 km/h (1 Bft)
25.11.2011 08:00 14,7 C 1,6 C 0,0 UV-I 0,0 C 50 % 96 % 0 % 1024,2 hPa 0,0 l/m 3,9 km/h (1 Bft) 0,00 h 0,10 h 4,3 km/h (1 Bft)
25.11.2011 09:00 14,8 C 3,5 C 0,0 UV-I 0,9 C 50 % 95 % 26 % 1024,2 hPa 0,0 l/m 4,6 km/h (1 Bft) 0,20 h 0,03 h 6,5 km/h (2 Bft)
25.11.2011 10:00 14,9 C 4,7 C 0,0 UV-I 3,3 C 50 % 93 % 84 % 1024,0 hPa 0,0 l/m 4,6 km/h (1 Bft) 0,77 h 0,00 h 4,9 km/h (1 Bft)
25.11.2011 11:00 15,2 C 6,4 C 0,3 UV-I 3,4 C 49 % 90 % 86 % 1023,9 hPa 0,0 l/m 5,0 km/h (1 Bft) 0,77 h 0,00 h 6,1 km/h (2 Bft)
25.11.2011 12:00 15,2 C 7,1 C 0,0 UV-I 0,5 C 49 % 87 % 13 % 1023,1 hPa 0,0 l/m 3,4 km/h (1 Bft) 0,00 h 0,00 h 4,1 km/h (1 Bft)
25.11.2011 13:00 15,2 C 7,3 C 0,0 UV-I 0,0 C 50 % 87 % 1 % 1022,5 hPa 0,1 l/m 2,0 km/h (1 Bft) 0,00 h 0,53 h 2,7 km/h (1 Bft)
25.11.2011 14:00 15,1 C 7,4 C 0,0 UV-I 0,0 C 52 % 91 % 0 % 1022,3 hPa 0,1 l/m 2,9 km/h (1 Bft) 0,00 h 0,17 h 3,4 km/h (1 Bft)
25.11.2011 15:00 15,2 C 7,9 C 0,0 UV-I 0,0 C 54 % 93 % 0 % 1022,9 hPa 0,0 l/m 6,0 km/h (2 Bft) 0,00 h 0,27 h 7,1 km/h (2 Bft)
25.11.2011 16:00 15,0 C 7,9 C 0,0 UV-I 0,0 C 55 % 94 % 0 % 1023,6 hPa 0,0 l/m 6,7 km/h (2 Bft) 0,00 h 0,13 h 8,2 km/h (2 Bft)
25.11.2011 17:00 15,0 C 8,1 C 0,0 UV-I 0,0 C 56 % 94 % 0 % 1024,2 hPa 0,0 l/m 5,8 km/h (2 Bft) 0,00 h 0,13 h 6,4 km/h (2 Bft)
25.11.2011 18:00 15,0 C 8,3 C 0,0 UV-I 0,0 C 57 % 93 % 0 % 1024,6 hPa 0,0 l/m 5,7 km/h (1 Bft) 0,00 h 0,13 h 8,5 km/h (2 Bft)
25.11.2011 19:00 15,0 C 8,3 C 0,0 UV-I 0,0 C 57 % 93 % 0 % 1025,1 hPa 0,0 l/m 4,3 km/h (1 Bft) 0,00 h 0,07 h 6,2 km/h (2 Bft)
25.11.2011 20:00 14,9 C 8,2 C 0,0 UV-I 0,0 C 57 % 93 % 0 % 1025,6 hPa 0,0 l/m 5,6 km/h (1 Bft) 0,00 h 0,07 h 5,8 km/h (2 Bft)
25.11.2011 21:00 15,0 C 7,9 C 0,0 UV-I 0,0 C 57 % 93 % 0 % 1025,7 hPa 0,0 l/m 5,8 km/h (2 Bft) 0,00 h 0,07 h 8,2 km/h (2 Bft)
25.11.2011 22:00 15,0 C 7,9 C 0,0 UV-I 0,0 C 57 % 93 % 0 % 1026,1 hPa 0,0 l/m 6,9 km/h (2 Bft) 0,00 h 0,10 h 8,5 km/h (2 Bft)
25.11.2011 23:00 14,8 C 7,6 C 0,0 UV-I 0,0 C 57 % 94 % 0 % 1026,4 hPa 0,0 l/m 7,5 km/h (2 Bft) 0,00 h 0,07 h 9,0 km/h (2 Bft)
26.11.2011 00:00 14,8 C 7,5 C 0,0 UV-I 0,0 C 57 % 94 % 0 % 1026,5 hPa 0,0 l/m 5,9 km/h (2 Bft) 0,00 h 0,07 h 6,6 km/h (2 Bft)
26.11.2011 01:00 14,8 C 7,0 C 0,0 UV-I 0,0 C 57 % 93 % 0 % 1026,9 hPa 0,0 l/m 4,4 km/h (1 Bft) 0,00 h 0,13 h 4,9 km/h (1 Bft)
26.11.2011 02:00 14,8 C 6,7 C 0,0 UV-I 0,0 C 57 % 94 % 0 % 1026,9 hPa 0,0 l/m 3,9 km/h (1 Bft) 0,00 h 0,07 h 5,0 km/h (1 Bft)
26.11.2011 03:00 14,8 C 6,1 C 0,0 UV-I 0,0 C 56 % 94 % 0 % 1027,4 hPa 0,0 l/m 2,3 km/h (1 Bft) 0,00 h 0,13 h 2,7 km/h (1 Bft)
26.11.2011 04:00 14,8 C 5,6 C 0,0 UV-I 0,0 C 56 % 94 % 0 % 1027,7 hPa 0,0 l/m 1,5 km/h (1 Bft) 0,00 h 0,23 h 1,6 km/h (1 Bft)
26.11.2011 05:00 14,7 C 5,3 C 0,0 UV-I 0,0 C 55 % 94 % 0 % 1028,1 hPa 0,0 l/m 1,8 km/h (1 Bft) 0,00 h 0,03 h 2,1 km/h (1 Bft)
26.11.2011 06:00 14,7 C 5,3 C 0,0 UV-I 0,0 C 55 % 94 % 0 % 1028,1 hPa 0,0 l/m 2,3 km/h (1 Bft) 0,00 h 0,07 h 3,0 km/h (1 Bft)
26.11.2011 07:00 14,7 C 5,6 C 0,0 UV-I 0,0 C 55 % 94 % 0 % 1028,1 hPa 0,0 l/m 3,1 km/h (1 Bft) 0,00 h 0,07 h 4,9 km/h (1 Bft)
26.11.2011 08:00 14,6 C 5,9 C 0,0 UV-I 0,0 C 55 % 94 % 0 % 1028,3 hPa 0,0 l/m 5,5 km/h (1 Bft) 0,00 h 0,03 h 6,3 km/h (2 Bft)
26.11.2011 09:00 14,6 C 6,4 C 0,0 UV-I 0,1 C 55 % 94 % 4 % 1028,6 hPa 0,0 l/m 4,9 km/h (1 Bft) 0,00 h 0,03 h 6,6 km/h (2 Bft)
26.11.2011 10:00 14,8 C 7,5 C 0,0 UV-I 0,7 C 55 % 93 % 20 % 1028,3 hPa 0,0 l/m 6,2 km/h (2 Bft) 0,00 h 0,00 h 7,8 km/h (2 Bft)
26.11.2011 11:00 15,0 C 8,8 C 0,1 UV-I 2,2 C 55 % 90 % 63 % 1028,3 hPa 0,0 l/m 6,6 km/h (2 Bft) 0,20 h 0,00 h 7,4 km/h (2 Bft)
26.11.2011 12:00 15,3 C 10,3 C 0,5 UV-I 3,2 C 55 % 86 % 89 % 1027,6 hPa 0,0 l/m 9,8 km/h (2 Bft) 0,80 h 0,00 h 12,1 km/h (2 Bft)
26.11.2011 13:00 15,9 C 11,1 C 0,4 UV-I 2,6 C 55 % 83 % 74 % 1027,2 hPa 0,0 l/m 10,6 km/h (2 Bft) 0,60 h 0,00 h 12,8 km/h (3 Bft)
26.11.2011 14:00 16,5 C 11,0 C 0,1 UV-I 0,9 C 54 % 83 % 26 % 1026,7 hPa 0,0 l/m 9,9 km/h (2 Bft) 0,00 h 0,00 h 10,3 km/h (2 Bft)
26.11.2011 15:00 16,3 C 10,8 C 0,0 UV-I 0,1 C 54 % 83 % 2 % 1025,7 hPa 0,0 l/m 10,1 km/h (2 Bft) 0,00 h 0,00 h 12,6 km/h (3 Bft)
26.11.2011 16:00 16,0 C 10,5 C 0,0 UV-I 0,0 C 54 % 81 % 0 % 1025,0 hPa 0,0 l/m 12,5 km/h (3 Bft) 0,00 h 0,00 h 14,2 km/h (3 Bft)
26.11.2011 17:00 15,7 C 9,9 C 0,0 UV-I 0,0 C 54 % 81 % 0 % 1024,9 hPa 0,0 l/m 10,5 km/h (2 Bft) 0,00 h 0,00 h 11,8 km/h (2 Bft)
26.11.2011 18:00 15,4 C 9,0 C 0,0 UV-I 0,0 C 54 % 82 % 0 % 1024,6 hPa 0,0 l/m 9,4 km/h (2 Bft) 0,00 h 0,00 h 10,6 km/h (2 Bft)
26.11.2011 19:00 15,2 C 8,4 C 0,0 UV-I 0,0 C 54 % 84 % 0 % 1024,6 hPa 0,0 l/m 7,5 km/h (2 Bft) 0,00 h 0,03 h 7,3 km/h (2 Bft)
26.11.2011 20:00 15,2 C 8,5 C 0,0 UV-I 0,0 C 54 % 84 % 0 % 1023,9 hPa 0,0 l/m 8,6 km/h (2 Bft) 0,00 h 0,00 h 10,4 km/h (2 Bft)
26.11.2011 21:00 15,2 C 8,6 C 0,0 UV-I 0,0 C 54 % 84 % 0 % 1023,5 hPa 0,0 l/m 9,1 km/h (2 Bft) 0,00 h 0,00 h 9,8 km/h (2 Bft)
26.11.2011 22:00 15,1 C 8,9 C 0,0 UV-I 0,0 C 54 % 84 % 0 % 1022,7 hPa 0,0 l/m 8,1 km/h (2 Bft) 0,00 h 0,00 h 8,9 km/h (2 Bft)
26.11.2011 23:00 15,3 C 9,3 C 0,0 UV-I 0,0 C 54 % 84 % 0 % 1022,0 hPa 0,0 l/m 8,9 km/h (2 Bft) 0,00 h 0,00 h 9,8 km/h (2 Bft)
27.11.2011 00:00 15,4 C 9,5 C 0,0 UV-I 0,0 C 54 % 84 % 0 % 1021,6 hPa 0,0 l/m 9,5 km/h (2 Bft) 0,00 h 0,00 h 11,3 km/h (2 Bft)
27.11.2011 01:00 15,4 C 9,5 C 0,0 UV-I 0,0 C 54 % 84 % 0 % 1021,1 hPa 0,0 l/m 10,4 km/h (2 Bft) 0,00 h 0,00 h 12,6 km/h (3 Bft)
27.11.2011 02:00 15,4 C 9,4 C 0,0 UV-I 0,0 C 54 % 84 % 0 % 1020,7 hPa 0,0 l/m 10,5 km/h (2 Bft) 0,00 h 0,00 h 12,2 km/h (2 Bft)
27.11.2011 03:00 15,4 C 9,2 C 0,0 UV-I 0,0 C 54 % 83 % 0 % 1020,0 hPa 0,0 l/m 12,3 km/h (3 Bft) 0,00 h 0,00 h 14,4 km/h (3 Bft)
27.11.2011 04:00 15,4 C 9,0 C 0,0 UV-I 0,0 C 53 % 82 % 0 % 1019,2 hPa 0,0 l/m 11,8 km/h (2 Bft) 0,00 h 0,00 h 11,0 km/h (2 Bft)
27.11.2011 05:00 15,4 C 8,9 C 0,0 UV-I 0,0 C 52 % 82 % 0 % 1018,9 hPa 0,0 l/m 13,4 km/h (3 Bft) 0,00 h 0,00 h 17,7 km/h (3 Bft)
27.11.2011 06:00 15,4 C 8,8 C 0,0 UV-I 0,0 C 52 % 83 % 0 % 1018,3 hPa 0,0 l/m 12,6 km/h (3 Bft) 0,00 h 0,00 h 15,8 km/h (3 Bft)
27.11.2011 07:00 15,4 C 8,8 C 0,0 UV-I 0,0 C 53 % 84 % 0 % 1018,0 hPa 0,0 l/m 12,7 km/h (3 Bft) 0,00 h 0,00 h 15,0 km/h (3 Bft)
27.11.2011 08:00 15,4 C 8,7 C 0,0 UV-I 0,0 C 53 % 84 % 0 % 1017,8 hPa 0,0 l/m 15,6 km/h (3 Bft) 0,00 h 0,00 h 17,5 km/h (3 Bft)
27.11.2011 09:00 15,4 C 8,6 C 0,0 UV-I 0,0 C 53 % 86 % 0 % 1017,5 hPa 0,0 l/m 15,7 km/h (3 Bft) 0,00 h 0,00 h 17,8 km/h (3 Bft)
27.11.2011 10:00 15,4 C 9,1 C 0,0 UV-I 0,0 C 54 % 86 % 0 % 1017,2 hPa 0,0 l/m 14,8 km/h (3 Bft) 0,00 h 0,00 h 17,9 km/h (3 Bft)
27.11.2011 11:00 15,5 C 9,7 C 0,0 UV-I 0,0 C 54 % 85 % 0 % 1016,5 hPa 0,0 l/m 13,1 km/h (3 Bft) 0,00 h 0,00 h 12,7 km/h (3 Bft)
27.11.2011 12:00 15,6 C 10,3 C 0,0 UV-I 0,0 C 55 % 86 % 0 % 1015,9 hPa 0,0 l/m 12,2 km/h (2 Bft) 0,00 h 0,10 h 13,3 km/h (3 Bft)
27.11.2011 13:00 15,8 C 10,5 C 0,0 UV-I 0,0 C 57 % 89 % 0 % 1015,8 hPa 0,4 l/m 12,7 km/h (3 Bft) 0,00 h 0,50 h 12,9 km/h (3 Bft)
27.11.2011 14:00 15,9 C 10,6 C 0,0 UV-I 0,0 C 60 % 93 % 0 % 1016,5 hPa 0,2 l/m 13,1 km/h (3 Bft) 0,00 h 0,27 h 15,1 km/h (3 Bft)
27.11.2011 15:00 16,0 C 11,1 C 0,0 UV-I 0,0 C 61 % 92 % 0 % 1017,1 hPa 0,0 l/m 12,4 km/h (3 Bft) 0,00 h 0,00 h 12,2 km/h (2 Bft)
27.11.2011 16:00 16,0 C 11,5 C 0,0 UV-I 0,0 C 61 % 91 % 0 % 1018,4 hPa 0,0 l/m 9,4 km/h (2 Bft) 0,00 h 0,03 h 9,7 km/h (2 Bft)
27.11.2011 17:00 15,8 C 10,9 C 0,0 UV-I 0,0 C 61 % 88 % 0 % 1019,5 hPa 0,0 l/m 6,1 km/h (2 Bft) 0,00 h 0,00 h 8,1 km/h (2 Bft)
27.11.2011 18:00 15,7 C 9,7 C 0,0 UV-I 0,0 C 59 % 84 % 0 % 1021,1 hPa 0,0 l/m 4,6 km/h (1 Bft) 0,00 h 0,00 h 4,7 km/h (1 Bft)
27.11.2011 19:00 15,6 C 8,4 C 0,0 UV-I 0,0 C 58 % 86 % 0 % 1022,3 hPa 0,0 l/m 1,4 km/h (1 Bft) 0,00 h 0,00 h 1,4 km/h (1 Bft)
27.11.2011 20:00 15,5 C 7,8 C 0,0 UV-I 0,0 C 57 % 87 % 0 % 1023,8 hPa 0,0 l/m 1,4 km/h (1 Bft) 0,00 h 0,00 h 1,5 km/h (1 Bft)
27.11.2011 21:00 15,4 C 7,1 C 0,0 UV-I 0,0 C 56 % 87 % 0 % 1024,4 hPa 0,0 l/m 0,8 km/h (0 Bft) 0,00 h 0,00 h 1,2 km/h (1 Bft)
27.11.2011 22:00 15,3 C 6,7 C 0,0 UV-I 0,0 C 55 % 86 % 0 % 1025,2 hPa 0,0 l/m 1,0 km/h (0 Bft) 0,00 h 0,00 h 1,8 km/h (1 Bft)
27.11.2011 23:00 15,2 C 6,2 C 0,0 UV-I 0,0 C 54 % 86 % 0 % 1025,7 hPa 0,0 l/m 0,6 km/h (0 Bft) 0,00 h 0,00 h 0,9 km/h (0 Bft)
Min-Datum _ 25.11.11 25.11.11 21.11.11 21.11.11 21.11.11 21.11.11 21.11.11 21.11.11 - 21.11.11 - - 21.11.11
_ Min-Zeit 08:14 07:20 00:00 00:00 14:54 14:48 00:00 16:46 - 00:00 - - 00:00
Minimum _ 14,6 C 0,7 C 0,0 UV-I 0,0 C 47 % 69 % 0 % 1014,9 hPa - 0,0 km/h (0 Bft) - - 0,0 km/h (0 Bft)
Max-Datum _ 21.11.11 21.11.11 21.11.11 21.11.11 23.11.11 24.11.11 21.11.11 24.11.11 27.11.11 27.11.11 21.11.11 21.11.11 27.11.11
_ Max-Zeit 14:56 14:44 12:50 11:34 20:06 04:26 09:50 11:06 13:38 08:16 09:34 00:56 06:04
Maximum _ 18,3 C 12,7 C 0,7 UV-I 6,1 C 61 % 98 % 100 % 1031,9 hPa 0,4 l/m 17,7 km/h
W-SW (3 Bft)
0,03 h 0,03 h 49,8 km/h
N-NW (6 Bft)
Durchschnitt _ 15,5 C 6,8 C 0,0 UV-I 0,4 C 54 % 91 % 9 % 1022,7 hPa #1,2 l/m 3,5 km/h (1 Bft) #10:34 h #8:26 h 4,2 km/h (1 Bft)
© 2012 W. Hausmann